Terminal Aerodrome Forecast
Issued by NWS Raleigh/Durham, NC

Home | Current Version | Previous Version | Text Only | Print | Product List | Glossary On
Versions: 1 2 3 4 5 6 7 8 9 10 11 12 13 14 15 16 17 18 19 20 21
000
FTUS42 KRAH 300543
TAFGSO
TAF
KGSO 300543Z 3006/3106 VRB05KT P6SM BKN080
      TEMPO 3006/3009 5SM -SHRA BR OVC040
     FM300900 VRB03KT 5SM BR BKN012 BKN200
     FM301300 26007KT P6SM SCT040 BKN250=

USA.gov is the U.S. government's official web portal to all federal, state and local government web resources and services.